sensor_id;sensor_type;location;lat;lon;timestamp;temperature;humidity
42031;DHT22;27709;52.036;5.906;2023-08-31T00:00:40;13.30;99.90
42031;DHT22;27709;52.036;5.906;2023-08-31T00:03:07;13.30;99.90
42031;DHT22;27709;52.036;5.906;2023-08-31T00:05:32;13.30;99.90
42031;DHT22;27709;52.036;5.906;2023-08-31T00:07:58;13.30;99.90
42031;DHT22;27709;52.036;5.906;2023-08-31T00:10:23;13.30;99.90
42031;DHT22;27709;52.036;5.906;2023-08-31T00:12:49;13.30;99.90
42031;DHT22;27709;52.036;5.906;2023-08-31T00:15:15;13.30;99.90
42031;DHT22;27709;52.036;5.906;2023-08-31T00:17:41;13.30;99.90
42031;DHT22;27709;52.036;5.906;2023-08-31T00:20:07;13.20;99.90
42031;DHT22;27709;52.036;5.906;2023-08-31T00:22:37;13.30;99.90
42031;DHT22;27709;52.036;5.906;2023-08-31T00:25:03;13.20;99.90
42031;DHT22;27709;52.036;5.906;2023-08-31T00:27:31;13.20;99.90
42031;DHT22;27709;52.036;5.906;2023-08-31T00:29:56;13.20;99.90
42031;DHT22;27709;52.036;5.906;2023-08-31T00:32:23;13.30;99.90
42031;DHT22;27709;52.036;5.906;2023-08-31T00:34:49;13.30;99.90
42031;DHT22;27709;52.036;5.906;2023-08-31T00:37:15;13.30;99.90
42031;DHT22;27709;52.036;5.906;2023-08-31T00:39:40;13.30;99.90
42031;DHT22;27709;52.036;5.906;2023-08-31T00:42:06;13.30;99.90
42031;DHT22;27709;52.036;5.906;2023-08-31T00:44:32;13.30;99.90
42031;DHT22;27709;52.036;5.906;2023-08-31T00:46:58;13.30;99.90
42031;DHT22;27709;52.036;5.906;2023-08-31T00:49:24;13.30;99.90
42031;DHT22;27709;52.036;5.906;2023-08-31T00:51:49;13.30;99.90
42031;DHT22;27709;52.036;5.906;2023-08-31T00:54:17;13.30;99.90
42031;DHT22;27709;52.036;5.906;2023-08-31T00:56:43;13.30;99.90
42031;DHT22;27709;52.036;5.906;2023-08-31T00:59:08;13.30;99.90
42031;DHT22;27709;52.036;5.906;2023-08-31T01:01:47;13.30;99.90
42031;DHT22;27709;52.036;5.906;2023-08-31T01:04:45;13.30;99.90
42031;DHT22;27709;52.036;5.906;2023-08-31T01:10:14;13.30;99.90
42031;DHT22;27709;52.036;5.906;2023-08-31T01:12:53;13.30;99.90
42031;DHT22;27709;52.036;5.906;2023-08-31T01:15:21;13.30;99.90
42031;DHT22;27709;52.036;5.906;2023-08-31T01:17:54;13.30;99.90
42031;DHT22;27709;52.036;5.906;2023-08-31T01:20:34;13.30;99.90
42031;DHT22;27709;52.036;5.906;2023-08-31T01:23:13;13.30;99.90
42031;DHT22;27709;52.036;5.906;2023-08-31T01:25:41;13.30;99.90
42031;DHT22;27709;52.036;5.906;2023-08-31T01:28:10;13.30;99.90
42031;DHT22;27709;52.036;5.906;2023-08-31T01:30:36;13.30;99.90
42031;DHT22;27709;52.036;5.906;2023-08-31T01:33:02;13.30;99.90
42031;DHT22;27709;52.036;5.906;2023-08-31T01:35:32;13.30;99.90
42031;DHT22;27709;52.036;5.906;2023-08-31T01:38:01;13.30;99.90
42031;DHT22;27709;52.036;5.906;2023-08-31T01:42:58;13.30;99.90
42031;DHT22;27709;52.036;5.906;2023-08-31T01:45:25;13.40;99.90
42031;DHT22;27709;52.036;5.906;2023-08-31T01:47:53;13.40;99.90
42031;DHT22;27709;52.036;5.906;2023-08-31T01:50:18;13.40;99.90
42031;DHT22;27709;52.036;5.906;2023-08-31T01:52:44;13.50;99.90
42031;DHT22;27709;52.036;5.906;2023-08-31T01:55:09;13.60;99.90
42031;DHT22;27709;52.036;5.906;2023-08-31T01:57:35;13.60;99.90
42031;DHT22;27709;52.036;5.906;2023-08-31T02:00:00;13.60;99.90
42031;DHT22;27709;52.036;5.906;2023-08-31T02:02:26;13.80;99.90
42031;DHT22;27709;52.036;5.906;2023-08-31T02:04:52;13.80;99.90
42031;DHT22;27709;52.036;5.906;2023-08-31T02:07:17;13.90;99.90
42031;DHT22;27709;52.036;5.906;2023-08-31T02:09:43;13.90;99.90
42031;DHT22;27709;52.036;5.906;2023-08-31T02:12:09;13.90;99.90
42031;DHT22;27709;52.036;5.906;2023-08-31T02:14:37;13.90;99.90
42031;DHT22;27709;52.036;5.906;2023-08-31T02:17:03;14.00;99.90
42031;DHT22;27709;52.036;5.906;2023-08-31T02:19:28;14.00;99.90
42031;DHT22;27709;52.036;5.906;2023-08-31T02:21:54;14.00;99.90
42031;DHT22;27709;52.036;5.906;2023-08-31T02:24:20;14.00;99.90
42031;DHT22;27709;52.036;5.906;2023-08-31T02:26:45;14.10;99.90
42031;DHT22;27709;52.036;5.906;2023-08-31T02:29:11;14.10;99.90
42031;DHT22;27709;52.036;5.906;2023-08-31T02:31:36;14.10;99.90
42031;DHT22;27709;52.036;5.906;2023-08-31T02:34:03;14.10;99.90
42031;DHT22;27709;52.036;5.906;2023-08-31T02:36:29;14.20;99.90
42031;DHT22;27709;52.036;5.906;2023-08-31T02:38:55;14.30;99.90
42031;DHT22;27709;52.036;5.906;2023-08-31T02:41:21;14.40;99.90
42031;DHT22;27709;52.036;5.906;2023-08-31T02:43:46;14.40;99.90
42031;DHT22;27709;52.036;5.906;2023-08-31T02:46:12;14.50;99.90
42031;DHT22;27709;52.036;5.906;2023-08-31T02:48:38;14.50;99.90
42031;DHT22;27709;52.036;5.906;2023-08-31T02:51:04;14.50;99.90
42031;DHT22;27709;52.036;5.906;2023-08-31T02:53:30;14.50;99.90
42031;DHT22;27709;52.036;5.906;2023-08-31T02:55:56;14.50;99.90
42031;DHT22;27709;52.036;5.906;2023-08-31T02:58:22;14.50;99.90
42031;DHT22;27709;52.036;5.906;2023-08-31T03:00:48;14.50;99.90
42031;DHT22;27709;52.036;5.906;2023-08-31T03:03:15;14.50;99.90
42031;DHT22;27709;52.036;5.906;2023-08-31T03:05:40;14.50;99.90
42031;DHT22;27709;52.036;5.906;2023-08-31T03:08:06;14.40;99.90
42031;DHT22;27709;52.036;5.906;2023-08-31T03:10:31;14.50;99.90
42031;DHT22;27709;52.036;5.906;2023-08-31T03:12:57;14.50;99.90
42031;DHT22;27709;52.036;5.906;2023-08-31T03:15:22;14.50;99.90
42031;DHT22;27709;52.036;5.906;2023-08-31T03:17:48;14.60;99.90
42031;DHT22;27709;52.036;5.906;2023-08-31T03:20:14;14.60;99.90
42031;DHT22;27709;52.036;5.906;2023-08-31T03:22:39;14.60;99.90
42031;DHT22;27709;52.036;5.906;2023-08-31T03:25:05;14.60;99.90
42031;DHT22;27709;52.036;5.906;2023-08-31T03:27:31;14.60;99.90
42031;DHT22;27709;52.036;5.906;2023-08-31T03:29:56;14.60;99.90
42031;DHT22;27709;52.036;5.906;2023-08-31T03:32:22;14.50;99.90
42031;DHT22;27709;52.036;5.906;2023-08-31T03:34:48;14.60;99.90
42031;DHT22;27709;52.036;5.906;2023-08-31T03:37:13;14.50;99.90
42031;DHT22;27709;52.036;5.906;2023-08-31T03:39:39;14.50;99.90
42031;DHT22;27709;52.036;5.906;2023-08-31T03:42:06;14.50;99.90
42031;DHT22;27709;52.036;5.906;2023-08-31T03:44:32;14.50;99.90
42031;DHT22;27709;52.036;5.906;2023-08-31T03:46:57;14.40;99.90
42031;DHT22;27709;52.036;5.906;2023-08-31T03:49:23;14.40;99.90
42031;DHT22;27709;52.036;5.906;2023-08-31T03:51:48;14.40;99.90
42031;DHT22;27709;52.036;5.906;2023-08-31T03:54:14;14.40;99.90
42031;DHT22;27709;52.036;5.906;2023-08-31T03:56:39;14.40;99.90
42031;DHT22;27709;52.036;5.906;2023-08-31T03:59:05;14.50;99.90
42031;DHT22;27709;52.036;5.906;2023-08-31T04:01:31;14.50;99.90
42031;DHT22;27709;52.036;5.906;2023-08-31T04:03:56;14.50;99.90
42031;DHT22;27709;52.036;5.906;2023-08-31T04:06:22;14.50;99.90
42031;DHT22;27709;52.036;5.906;2023-08-31T04:08:47;14.50;99.90
42031;DHT22;27709;52.036;5.906;2023-08-31T04:11:13;14.60;99.90
42031;DHT22;27709;52.036;5.906;2023-08-31T04:13:38;14.60;99.90
42031;DHT22;27709;52.036;5.906;2023-08-31T04:16:04;14.60;99.90
42031;DHT22;27709;52.036;5.906;2023-08-31T04:18:30;14.60;99.90
42031;DHT22;27709;52.036;5.906;2023-08-31T04:20:56;14.60;99.90
42031;DHT22;27709;52.036;5.906;2023-08-31T04:23:24;14.60;99.90
42031;DHT22;27709;52.036;5.906;2023-08-31T04:25:49;14.60;99.90
42031;DHT22;27709;52.036;5.906;2023-08-31T04:28:17;14.60;99.90
42031;DHT22;27709;52.036;5.906;2023-08-31T04:30:42;14.60;99.90
42031;DHT22;27709;52.036;5.906;2023-08-31T04:33:09;14.60;99.90
42031;DHT22;27709;52.036;5.906;2023-08-31T04:35:35;14.60;99.90
42031;DHT22;27709;52.036;5.906;2023-08-31T04:38:01;14.60;99.90
42031;DHT22;27709;52.036;5.906;2023-08-31T04:40:27;14.60;99.90
42031;DHT22;27709;52.036;5.906;2023-08-31T04:42:53;14.70;99.90
42031;DHT22;27709;52.036;5.906;2023-08-31T04:45:19;14.70;99.90
42031;DHT22;27709;52.036;5.906;2023-08-31T04:47:44;14.70;99.90
42031;DHT22;27709;52.036;5.906;2023-08-31T04:50:10;14.70;99.90
42031;DHT22;27709;52.036;5.906;2023-08-31T04:52:35;14.70;99.90
42031;DHT22;27709;52.036;5.906;2023-08-31T04:55:01;14.70;99.90
42031;DHT22;27709;52.036;5.906;2023-08-31T04:57:29;14.70;99.90
42031;DHT22;27709;52.036;5.906;2023-08-31T04:59:54;14.70;99.90
42031;DHT22;27709;52.036;5.906;2023-08-31T05:02:20;14.70;99.90
42031;DHT22;27709;52.036;5.906;2023-08-31T05:04:45;14.70;99.90
42031;DHT22;27709;52.036;5.906;2023-08-31T05:07:11;14.70;99.90
42031;DHT22;27709;52.036;5.906;2023-08-31T05:09:36;14.70;99.90
42031;DHT22;27709;52.036;5.906;2023-08-31T05:12:03;14.70;99.90
42031;DHT22;27709;52.036;5.906;2023-08-31T05:14:29;14.70;99.90
42031;DHT22;27709;52.036;5.906;2023-08-31T05:16:55;14.80;99.90
42031;DHT22;27709;52.036;5.906;2023-08-31T05:19:21;14.80;99.90
42031;DHT22;27709;52.036;5.906;2023-08-31T05:21:46;14.80;99.90
42031;DHT22;27709;52.036;5.906;2023-08-31T05:24:12;14.80;99.90
42031;DHT22;27709;52.036;5.906;2023-08-31T05:26:39;14.90;99.90
42031;DHT22;27709;52.036;5.906;2023-08-31T05:29:04;14.90;99.90
42031;DHT22;27709;52.036;5.906;2023-08-31T05:31:30;14.90;99.90
42031;DHT22;27709;52.036;5.906;2023-08-31T05:33:56;15.00;99.90
42031;DHT22;27709;52.036;5.906;2023-08-31T05:36:22;15.00;99.90
42031;DHT22;27709;52.036;5.906;2023-08-31T05:38:47;15.00;99.90
42031;DHT22;27709;52.036;5.906;2023-08-31T05:41:13;15.10;99.90
42031;DHT22;27709;52.036;5.906;2023-08-31T05:43:38;15.00;99.90
42031;DHT22;27709;52.036;5.906;2023-08-31T05:46:08;15.10;99.90
42031;DHT22;27709;52.036;5.906;2023-08-31T05:48:34;15.20;99.90
42031;DHT22;27709;52.036;5.906;2023-08-31T05:51:01;15.20;99.90
42031;DHT22;27709;52.036;5.906;2023-08-31T05:53:28;15.20;99.90
42031;DHT22;27709;52.036;5.906;2023-08-31T05:55:54;15.30;99.90
42031;DHT22;27709;52.036;5.906;2023-08-31T05:58:20;15.40;99.90
42031;DHT22;27709;52.036;5.906;2023-08-31T06:00:45;15.40;99.90
42031;DHT22;27709;52.036;5.906;2023-08-31T06:03:11;15.40;99.90
42031;DHT22;27709;52.036;5.906;2023-08-31T06:05:37;15.40;99.90
42031;DHT22;27709;52.036;5.906;2023-08-31T06:08:04;15.40;99.90
42031;DHT22;27709;52.036;5.906;2023-08-31T06:10:29;15.40;99.90
42031;DHT22;27709;52.036;5.906;2023-08-31T06:12:55;15.40;99.90
42031;DHT22;27709;52.036;5.906;2023-08-31T06:15:20;15.50;99.90
42031;DHT22;27709;52.036;5.906;2023-08-31T06:17:45;15.60;99.90
42031;DHT22;27709;52.036;5.906;2023-08-31T06:20:11;15.70;99.90
42031;DHT22;27709;52.036;5.906;2023-08-31T06:22:37;15.80;99.90
42031;DHT22;27709;52.036;5.906;2023-08-31T06:25:02;15.90;99.90
42031;DHT22;27709;52.036;5.906;2023-08-31T06:27:34;16.10;99.90
42031;DHT22;27709;52.036;5.906;2023-08-31T06:30:00;16.20;99.90
42031;DHT22;27709;52.036;5.906;2023-08-31T06:32:26;16.20;99.90
42031;DHT22;27709;52.036;5.906;2023-08-31T06:34:52;16.20;99.90
42031;DHT22;27709;52.036;5.906;2023-08-31T06:37:18;16.10;99.90
42031;DHT22;27709;52.036;5.906;2023-08-31T06:39:45;16.10;99.90
42031;DHT22;27709;52.036;5.906;2023-08-31T06:42:11;16.30;99.90
42031;DHT22;27709;52.036;5.906;2023-08-31T06:44:36;16.70;99.90
42031;DHT22;27709;52.036;5.906;2023-08-31T06:47:02;16.80;99.90
42031;DHT22;27709;52.036;5.906;2023-08-31T06:49:28;16.70;99.90
42031;DHT22;27709;52.036;5.906;2023-08-31T06:51:55;16.60;99.90
42031;DHT22;27709;52.036;5.906;2023-08-31T06:54:21;16.50;99.90
42031;DHT22;27709;52.036;5.906;2023-08-31T06:56:47;16.50;99.90
42031;DHT22;27709;52.036;5.906;2023-08-31T06:59:13;16.40;99.90
42031;DHT22;27709;52.036;5.906;2023-08-31T07:01:38;16.40;99.90
42031;DHT22;27709;52.036;5.906;2023-08-31T07:04:04;16.30;99.90
42031;DHT22;27709;52.036;5.906;2023-08-31T07:06:30;16.30;99.90
42031;DHT22;27709;52.036;5.906;2023-08-31T07:08:57;16.40;99.90
42031;DHT22;27709;52.036;5.906;2023-08-31T07:11:23;16.50;99.90
42031;DHT22;27709;52.036;5.906;2023-08-31T07:13:48;16.70;99.90
42031;DHT22;27709;52.036;5.906;2023-08-31T07:16:14;17.00;99.90
42031;DHT22;27709;52.036;5.906;2023-08-31T07:18:39;17.10;99.90
42031;DHT22;27709;52.036;5.906;2023-08-31T07:21:05;17.20;99.90
42031;DHT22;27709;52.036;5.906;2023-08-31T07:23:30;17.20;99.90
42031;DHT22;27709;52.036;5.906;2023-08-31T07:25:59;17.10;99.90
42031;DHT22;27709;52.036;5.906;2023-08-31T07:28:25;16.90;99.90
42031;DHT22;27709;52.036;5.906;2023-08-31T07:31:06;16.80;99.90
42031;DHT22;27709;52.036;5.906;2023-08-31T07:33:32;16.80;99.90
42031;DHT22;27709;52.036;5.906;2023-08-31T07:35:58;17.70;99.90
42031;DHT22;27709;52.036;5.906;2023-08-31T07:38:25;18.60;99.00
42031;DHT22;27709;52.036;5.906;2023-08-31T07:40:51;19.10;97.80
42031;DHT22;27709;52.036;5.906;2023-08-31T07:43:17;19.00;97.00
42031;DHT22;27709;52.036;5.906;2023-08-31T07:45:42;18.80;96.90
42031;DHT22;27709;52.036;5.906;2023-08-31T07:48:08;19.70;97.10
42031;DHT22;27709;52.036;5.906;2023-08-31T07:50:33;21.80;95.30
42031;DHT22;27709;52.036;5.906;2023-08-31T07:53:00;23.70;92.50
42031;DHT22;27709;52.036;5.906;2023-08-31T07:55:25;24.00;90.20
42031;DHT22;27709;52.036;5.906;2023-08-31T07:57:51;24.30;89.80
42031;DHT22;27709;52.036;5.906;2023-08-31T08:00:17;23.40;89.70
42031;DHT22;27709;52.036;5.906;2023-08-31T08:02:45;22.30;91.20
42031;DHT22;27709;52.036;5.906;2023-08-31T08:05:10;21.80;92.40
42031;DHT22;27709;52.036;5.906;2023-08-31T08:07:36;21.50;92.70
42031;DHT22;27709;52.036;5.906;2023-08-31T08:10:01;20.90;93.10
42031;DHT22;27709;52.036;5.906;2023-08-31T08:12:28;20.40;93.90
42031;DHT22;27709;52.036;5.906;2023-08-31T08:15:01;19.90;94.40
42031;DHT22;27709;52.036;5.906;2023-08-31T08:17:27;19.50;95.10
42031;DHT22;27709;52.036;5.906;2023-08-31T08:19:52;19.20;95.70
42031;DHT22;27709;52.036;5.906;2023-08-31T08:22:18;18.80;96.20
42031;DHT22;27709;52.036;5.906;2023-08-31T08:24:43;18.60;96.70
42031;DHT22;27709;52.036;5.906;2023-08-31T08:27:09;18.50;97.10
42031;DHT22;27709;52.036;5.906;2023-08-31T08:29:34;18.40;97.10
42031;DHT22;27709;52.036;5.906;2023-08-31T08:32:00;18.80;97.90
42031;DHT22;27709;52.036;5.906;2023-08-31T08:34:26;19.90;96.60
42031;DHT22;27709;52.036;5.906;2023-08-31T08:36:52;20.10;95.30
42031;DHT22;27709;52.036;5.906;2023-08-31T08:39:18;19.90;95.50
42031;DHT22;27709;52.036;5.906;2023-08-31T08:41:44;19.70;95.90
42031;DHT22;27709;52.036;5.906;2023-08-31T08:44:10;19.70;96.30
42031;DHT22;27709;52.036;5.906;2023-08-31T08:46:36;19.60;96.30
42031;DHT22;27709;52.036;5.906;2023-08-31T08:49:03;19.30;96.10
42031;DHT22;27709;52.036;5.906;2023-08-31T08:51:31;19.00;96.80
42031;DHT22;27709;52.036;5.906;2023-08-31T08:53:59;18.90;97.20
42031;DHT22;27709;52.036;5.906;2023-08-31T08:56:25;18.80;97.20
42031;DHT22;27709;52.036;5.906;2023-08-31T08:58:53;18.70;97.10
42031;DHT22;27709;52.036;5.906;2023-08-31T09:01:18;18.50;97.10
42031;DHT22;27709;52.036;5.906;2023-08-31T09:03:49;18.50;97.50
42031;DHT22;27709;52.036;5.906;2023-08-31T09:06:15;18.60;97.80
42031;DHT22;27709;52.036;5.906;2023-08-31T09:08:41;18.90;97.80
42031;DHT22;27709;52.036;5.906;2023-08-31T09:11:09;19.40;97.50
42031;DHT22;27709;52.036;5.906;2023-08-31T09:13:44;19.70;97.30
42031;DHT22;27709;52.036;5.906;2023-08-31T09:16:23;19.80;97.00
42031;DHT22;27709;52.036;5.906;2023-08-31T09:18:49;19.90;96.90
42031;DHT22;27709;52.036;5.906;2023-08-31T09:21:14;20.10;97.00
42031;DHT22;27709;52.036;5.906;2023-08-31T09:23:40;20.40;96.50
42031;DHT22;27709;52.036;5.906;2023-08-31T09:26:05;20.80;96.30
42031;DHT22;27709;52.036;5.906;2023-08-31T09:28:31;21.50;96.20
42031;DHT22;27709;52.036;5.906;2023-08-31T09:31:07;22.00;95.20
42031;DHT22;27709;52.036;5.906;2023-08-31T09:33:34;22.70;94.70
42031;DHT22;27709;52.036;5.906;2023-08-31T09:36:00;23.50;93.50
42031;DHT22;27709;52.036;5.906;2023-08-31T09:38:27;23.90;92.40
42031;DHT22;27709;52.036;5.906;2023-08-31T09:41:06;23.90;92.10
42031;DHT22;27709;52.036;5.906;2023-08-31T09:43:32;24.90;91.30
42031;DHT22;27709;52.036;5.906;2023-08-31T09:45:59;25.40;89.40
42031;DHT22;27709;52.036;5.906;2023-08-31T09:48:26;25.60;88.90
42031;DHT22;27709;52.036;5.906;2023-08-31T09:50:52;25.80;87.80
42031;DHT22;27709;52.036;5.906;2023-08-31T09:53:20;25.80;87.60
42031;DHT22;27709;52.036;5.906;2023-08-31T09:55:47;25.30;88.00
42031;DHT22;27709;52.036;5.906;2023-08-31T09:58:18;24.80;89.90
42031;DHT22;27709;52.036;5.906;2023-08-31T10:00:46;25.00;90.20
42031;DHT22;27709;52.036;5.906;2023-08-31T10:03:13;25.30;88.70
42031;DHT22;27709;52.036;5.906;2023-08-31T10:05:44;24.90;86.30
42031;DHT22;27709;52.036;5.906;2023-08-31T10:08:11;24.10;87.80
42031;DHT22;27709;52.036;5.906;2023-08-31T10:10:38;23.20;90.10
42031;DHT22;27709;52.036;5.906;2023-08-31T10:13:05;22.60;91.30
42031;DHT22;27709;52.036;5.906;2023-08-31T10:15:37;22.00;91.80
42031;DHT22;27709;52.036;5.906;2023-08-31T10:18:06;21.50;92.70
42031;DHT22;27709;52.036;5.906;2023-08-31T10:20:32;21.20;93.70
42031;DHT22;27709;52.036;5.906;2023-08-31T10:23:06;21.00;94.50
42031;DHT22;27709;52.036;5.906;2023-08-31T10:28:25;20.60;95.30
42031;DHT22;27709;52.036;5.906;2023-08-31T10:33:41;20.40;95.60
42031;DHT22;27709;52.036;5.906;2023-08-31T10:36:18;20.40;96.00
42031;DHT22;27709;52.036;5.906;2023-08-31T10:39:00;20.70;96.80
42031;DHT22;27709;52.036;5.906;2023-08-31T10:41:33;21.40;96.50
42031;DHT22;27709;52.036;5.906;2023-08-31T10:43:58;21.90;95.80
42031;DHT22;27709;52.036;5.906;2023-08-31T10:46:28;22.20;95.10
42031;DHT22;27709;52.036;5.906;2023-08-31T10:51:32;22.20;94.10
42031;DHT22;27709;52.036;5.906;2023-08-31T10:54:05;22.10;93.90
42031;DHT22;27709;52.036;5.906;2023-08-31T10:56:32;22.00;94.20
42031;DHT22;27709;52.036;5.906;2023-08-31T10:59:01;21.80;94.80
42031;DHT22;27709;52.036;5.906;2023-08-31T11:01:52;21.60;95.00
42031;DHT22;27709;52.036;5.906;2023-08-31T11:04:20;21.40;95.10
42031;DHT22;27709;52.036;5.906;2023-08-31T11:06:45;21.20;95.70
42031;DHT22;27709;52.036;5.906;2023-08-31T11:09:21;21.30;95.80
42031;DHT22;27709;52.036;5.906;2023-08-31T11:11:47;21.40;95.30
42031;DHT22;27709;52.036;5.906;2023-08-31T11:14:14;21.30;95.00
42031;DHT22;27709;52.036;5.906;2023-08-31T11:16:41;21.10;94.40
42031;DHT22;27709;52.036;5.906;2023-08-31T11:19:07;21.10;94.30
42031;DHT22;27709;52.036;5.906;2023-08-31T11:21:32;20.90;94.40
42031;DHT22;27709;52.036;5.906;2023-08-31T11:23:58;21.00;94.60
42031;DHT22;27709;52.036;5.906;2023-08-31T11:26:26;20.90;94.70
42031;DHT22;27709;52.036;5.906;2023-08-31T11:28:51;20.90;94.90
42031;DHT22;27709;52.036;5.906;2023-08-31T11:31:24;20.90;95.00
42031;DHT22;27709;52.036;5.906;2023-08-31T11:33:49;20.90;95.00
42031;DHT22;27709;52.036;5.906;2023-08-31T11:36:15;21.20;95.10
42031;DHT22;27709;52.036;5.906;2023-08-31T11:38:43;21.60;95.00
42031;DHT22;27709;52.036;5.906;2023-08-31T11:41:09;21.80;93.50
42031;DHT22;27709;52.036;5.906;2023-08-31T11:43:35;21.70;92.70
42031;DHT22;27709;52.036;5.906;2023-08-31T11:46:02;21.50;92.40
42031;DHT22;27709;52.036;5.906;2023-08-31T11:48:28;21.50;91.40
42031;DHT22;27709;52.036;5.906;2023-08-31T11:50:54;21.60;90.90
42031;DHT22;27709;52.036;5.906;2023-08-31T11:53:20;21.80;91.30
42031;DHT22;27709;52.036;5.906;2023-08-31T11:55:50;22.00;91.40
42031;DHT22;27709;52.036;5.906;2023-08-31T11:58:16;22.10;90.10
42031;DHT22;27709;52.036;5.906;2023-08-31T12:00:43;22.30;87.50
42031;DHT22;27709;52.036;5.906;2023-08-31T12:03:09;22.40;87.70
42031;DHT22;27709;52.036;5.906;2023-08-31T12:05:45;22.70;87.90
42031;DHT22;27709;52.036;5.906;2023-08-31T12:08:11;22.90;87.50
42031;DHT22;27709;52.036;5.906;2023-08-31T12:10:40;23.00;87.60
42031;DHT22;27709;52.036;5.906;2023-08-31T12:13:10;23.10;86.50
42031;DHT22;27709;52.036;5.906;2023-08-31T12:15:36;23.10;85.10
42031;DHT22;27709;52.036;5.906;2023-08-31T12:18:12;22.90;84.00
42031;DHT22;27709;52.036;5.906;2023-08-31T12:20:54;22.70;84.40
42031;DHT22;27709;52.036;5.906;2023-08-31T12:23:19;22.70;84.80
42031;DHT22;27709;52.036;5.906;2023-08-31T12:25:53;22.80;84.10
42031;DHT22;27709;52.036;5.906;2023-08-31T12:28:21;22.70;83.80
42031;DHT22;27709;52.036;5.906;2023-08-31T12:30:52;22.60;81.60
42031;DHT22;27709;52.036;5.906;2023-08-31T12:33:18;22.50;82.60
42031;DHT22;27709;52.036;5.906;2023-08-31T12:35:44;22.40;83.30
42031;DHT22;27709;52.036;5.906;2023-08-31T12:38:11;22.50;82.30
42031;DHT22;27709;52.036;5.906;2023-08-31T12:40:37;22.60;82.40
42031;DHT22;27709;52.036;5.906;2023-08-31T12:43:04;22.60;81.50
42031;DHT22;27709;52.036;5.906;2023-08-31T12:45:30;22.70;81.20
42031;DHT22;27709;52.036;5.906;2023-08-31T12:47:55;22.70;80.20
42031;DHT22;27709;52.036;5.906;2023-08-31T12:50:21;22.70;81.00
42031;DHT22;27709;52.036;5.906;2023-08-31T12:52:46;22.80;83.00
42031;DHT22;27709;52.036;5.906;2023-08-31T12:55:16;22.70;82.80
42031;DHT22;27709;52.036;5.906;2023-08-31T12:57:42;22.70;82.20
42031;DHT22;27709;52.036;5.906;2023-08-31T13:00:09;22.70;81.40
42031;DHT22;27709;52.036;5.906;2023-08-31T13:02:38;22.70;80.70
42031;DHT22;27709;52.036;5.906;2023-08-31T13:05:04;22.60;80.50
42031;DHT22;27709;52.036;5.906;2023-08-31T13:07:31;22.70;80.90
42031;DHT22;27709;52.036;5.906;2023-08-31T13:09:59;22.70;78.50
42031;DHT22;27709;52.036;5.906;2023-08-31T13:12:24;22.80;77.90
42031;DHT22;27709;52.036;5.906;2023-08-31T13:14:50;22.90;77.90
42031;DHT22;27709;52.036;5.906;2023-08-31T13:17:15;23.10;79.70
42031;DHT22;27709;52.036;5.906;2023-08-31T13:19:41;23.20;79.80
42031;DHT22;27709;52.036;5.906;2023-08-31T13:22:06;23.30;78.70
42031;DHT22;27709;52.036;5.906;2023-08-31T13:24:32;23.10;78.60
42031;DHT22;27709;52.036;5.906;2023-08-31T13:26:57;23.00;77.80
42031;DHT22;27709;52.036;5.906;2023-08-31T13:29:23;22.90;78.10
42031;DHT22;27709;52.036;5.906;2023-08-31T13:31:48;22.80;77.90
42031;DHT22;27709;52.036;5.906;2023-08-31T13:34:14;22.70;79.40
42031;DHT22;27709;52.036;5.906;2023-08-31T13:36:41;22.60;79.20
42031;DHT22;27709;52.036;5.906;2023-08-31T13:39:06;22.40;80.20
42031;DHT22;27709;52.036;5.906;2023-08-31T13:41:32;22.30;80.30
42031;DHT22;27709;52.036;5.906;2023-08-31T13:43:58;22.30;80.70
42031;DHT22;27709;52.036;5.906;2023-08-31T13:46:24;22.50;80.90
42031;DHT22;27709;52.036;5.906;2023-08-31T13:48:49;22.60;80.50
42031;DHT22;27709;52.036;5.906;2023-08-31T13:51:15;22.70;81.40
42031;DHT22;27709;52.036;5.906;2023-08-31T13:53:40;22.80;77.50
42031;DHT22;27709;52.036;5.906;2023-08-31T13:56:06;22.80;77.70
42031;DHT22;27709;52.036;5.906;2023-08-31T13:58:32;22.80;77.80
42031;DHT22;27709;52.036;5.906;2023-08-31T14:01:00;22.90;77.50
42031;DHT22;27709;52.036;5.906;2023-08-31T14:03:25;22.90;77.40
42031;DHT22;27709;52.036;5.906;2023-08-31T14:05:51;22.90;77.70
42031;DHT22;27709;52.036;5.906;2023-08-31T14:08:16;22.70;77.70
42031;DHT22;27709;52.036;5.906;2023-08-31T14:10:42;22.70;77.90
42031;DHT22;27709;52.036;5.906;2023-08-31T14:13:07;22.60;78.30
42031;DHT22;27709;52.036;5.906;2023-08-31T14:15:36;22.50;78.40
42031;DHT22;27709;52.036;5.906;2023-08-31T14:18:05;22.40;78.70
42031;DHT22;27709;52.036;5.906;2023-08-31T14:20:30;22.40;78.50
42031;DHT22;27709;52.036;5.906;2023-08-31T14:22:57;22.30;77.90
42031;DHT22;27709;52.036;5.906;2023-08-31T14:25:22;22.20;78.10
42031;DHT22;27709;52.036;5.906;2023-08-31T14:27:50;22.10;78.70
42031;DHT22;27709;52.036;5.906;2023-08-31T14:30:17;22.00;79.60
42031;DHT22;27709;52.036;5.906;2023-08-31T14:32:42;21.90;79.50
42031;DHT22;27709;52.036;5.906;2023-08-31T14:35:08;21.90;79.90
42031;DHT22;27709;52.036;5.906;2023-08-31T14:37:34;21.80;80.30
42031;DHT22;27709;52.036;5.906;2023-08-31T14:39:59;21.70;81.40
42031;DHT22;27709;52.036;5.906;2023-08-31T14:42:25;21.60;81.20
42031;DHT22;27709;52.036;5.906;2023-08-31T14:44:51;21.70;81.40
42031;DHT22;27709;52.036;5.906;2023-08-31T14:47:16;21.70;82.20
42031;DHT22;27709;52.036;5.906;2023-08-31T14:49:42;21.80;82.90
42031;DHT22;27709;52.036;5.906;2023-08-31T14:52:08;21.80;83.50
42031;DHT22;27709;52.036;5.906;2023-08-31T14:54:33;21.70;84.40
42031;DHT22;27709;52.036;5.906;2023-08-31T14:57:00;21.60;84.40
42031;DHT22;27709;52.036;5.906;2023-08-31T14:59:25;21.70;84.20
42031;DHT22;27709;52.036;5.906;2023-08-31T15:01:51;21.80;83.50
42031;DHT22;27709;52.036;5.906;2023-08-31T15:04:20;22.00;82.40
42031;DHT22;27709;52.036;5.906;2023-08-31T15:06:46;22.00;81.90
42031;DHT22;27709;52.036;5.906;2023-08-31T15:09:11;22.00;83.30
42031;DHT22;27709;52.036;5.906;2023-08-31T15:11:37;22.00;83.70
42031;DHT22;27709;52.036;5.906;2023-08-31T15:14:04;22.10;82.60
42031;DHT22;27709;52.036;5.906;2023-08-31T15:16:30;22.00;82.60
42031;DHT22;27709;52.036;5.906;2023-08-31T15:18:57;21.90;82.50
42031;DHT22;27709;52.036;5.906;2023-08-31T15:21:22;21.70;83.50
42031;DHT22;27709;52.036;5.906;2023-08-31T15:23:48;21.50;84.70
42031;DHT22;27709;52.036;5.906;2023-08-31T15:26:13;21.40;85.40
42031;DHT22;27709;52.036;5.906;2023-08-31T15:28:42;21.30;85.10
42031;DHT22;27709;52.036;5.906;2023-08-31T15:31:07;21.40;84.80
42031;DHT22;27709;52.036;5.906;2023-08-31T15:33:33;21.50;84.70
42031;DHT22;27709;52.036;5.906;2023-08-31T15:36:03;21.40;84.70
42031;DHT22;27709;52.036;5.906;2023-08-31T15:38:30;21.50;84.50
42031;DHT22;27709;52.036;5.906;2023-08-31T15:40:55;21.40;84.70